Cayucos, California
Current Conditions -  °F | °C
As of 4:56 PM on Thursday 27 Nov 2014 (Local Time) from KSBP Reporting Station
Clear Clear  
Wind Chill: 63°   Ceiling: Unl
Heat Index: 63°   Visibility: 10mi
Dew Point: 43°   Wind: 8mph
Humidity: 48%   Direction: 320°NW
Pressure: 30.03"   Gusts: NA
Location:  35.44°N, 120.89°W
Report Text: KSBP 280056Z 32007KT 10SM CLR 17/06 A3003 RMK AO2 SLP170 T01720061
Loading
Personal Weather Stations






























Interactive Weather Map New forecast layout! Learn more

10-Day Weather Forecast

Advertisements
Track Severe Weather on mobile